createdAt,value
2022-11-28T00:01:45.491Z,37.47
2022-11-28T00:04:12.781Z,35.03
2022-11-28T00:06:48.191Z,42.60
2022-11-28T00:09:17.029Z,40.20
2022-11-28T00:11:45.889Z,33.50
2022-11-28T00:14:13.438Z,38.73
2022-11-28T00:16:39.922Z,28.47
2022-11-28T00:19:07.070Z,29.50
2022-11-28T00:21:34.734Z,32.63
2022-11-28T00:24:01.414Z,38.13
2022-11-28T00:26:33.484Z,37.13
2022-11-28T00:29:00.515Z,29.73
2022-11-28T00:31:32.123Z,25.50
2022-11-28T00:34:00.975Z,26.50
2022-11-28T00:36:28.898Z,28.77
2022-11-28T00:38:55.410Z,21.73
2022-11-28T00:41:26.236Z,21.13
2022-11-28T00:43:53.316Z,30.67
2022-11-28T00:46:21.745Z,26.33
2022-11-28T00:48:48.636Z,29.57
2022-11-28T00:51:22.172Z,25.53
2022-11-28T00:53:51.929Z,19.53
2022-11-28T00:56:23.355Z,22.60
2022-11-28T00:58:50.809Z,19.70
2022-11-28T01:01:37.460Z,20.97
2022-11-28T01:04:08.427Z,24.87
2022-11-28T01:06:42.288Z,27.97
2022-11-28T01:09:21.864Z,21.63
2022-11-28T01:11:51.520Z,21.57
2022-11-28T01:14:24.251Z,23.80
2022-11-28T01:16:51.115Z,22.70
2022-11-28T01:19:17.693Z,24.30
2022-11-28T01:21:44.438Z,27.87
2022-11-28T01:24:11.785Z,33.07
2022-11-28T01:26:39.814Z,23.10
2022-11-28T01:29:07.482Z,20.13
2022-11-28T01:31:34.154Z,25.17
2022-11-28T01:34:00.647Z,25.13
2022-11-28T01:36:27.772Z,31.17
2022-11-28T01:38:54.392Z,27.00
2022-11-28T01:41:25.444Z,22.73
2022-11-28T01:45:07.233Z,31.53
2022-11-28T01:47:35.002Z,28.43
2022-11-28T01:50:06.381Z,27.80
2022-11-28T01:52:36.378Z,26.63
2022-11-28T01:55:06.149Z,21.23
2022-11-28T01:57:33.804Z,21.27
2022-11-28T02:00:20.085Z,17.33
2022-11-28T02:02:55.672Z,22.27
2022-11-28T02:05:22.627Z,20.83
2022-11-28T02:07:51.477Z,26.83
2022-11-28T02:10:36.756Z,21.67
2022-11-28T02:13:35.297Z,25.13
2022-11-28T02:18:34.040Z,24.90
2022-11-28T02:24:04.227Z,23.83
2022-11-28T02:28:41.838Z,23.17
2022-11-28T02:33:48.553Z,24.73
2022-11-28T02:36:31.705Z,26.03
2022-11-28T02:41:05.827Z,26.50
2022-11-28T02:46:15.356Z,26.40
2022-11-28T02:49:33.639Z,23.97
2022-11-28T02:52:17.102Z,24.80
2022-11-28T02:54:45.503Z,23.63
2022-11-28T02:57:11.963Z,27.00
2022-11-28T02:59:51.110Z,24.47
2022-11-28T03:02:32.460Z,49.03
2022-11-28T03:05:32.223Z,25.00
2022-11-28T03:10:43.763Z,23.00
2022-11-28T03:14:14.934Z,22.20
2022-11-28T03:18:50.690Z,23.73
2022-11-28T03:21:46.993Z,17.97
2022-11-28T03:24:48.124Z,46.77
2022-11-28T03:27:28.577Z,23.33
2022-11-28T03:30:08.990Z,23.20
2022-11-28T03:32:41.019Z,23.43
2022-11-28T03:35:17.452Z,18.73
2022-11-28T03:38:00.477Z,13.93
2022-11-28T03:40:36.186Z,17.73
2022-11-28T03:43:10.987Z,19.70
2022-11-28T03:45:53.212Z,21.33
2022-11-28T03:48:34.059Z,18.33
2022-11-28T03:51:24.966Z,19.17
2022-11-28T03:54:32.200Z,22.53
2022-11-28T03:57:32.471Z,16.17
2022-11-28T04:00:04.852Z,23.00
2022-11-28T04:02:54.580Z,20.83
2022-11-28T04:06:25.386Z,19.37
2022-11-28T04:10:35.114Z,19.30
2022-11-28T04:13:27.180Z,21.93
2022-11-28T04:16:33.604Z,15.00
2022-11-28T04:19:14.121Z,16.17
2022-11-28T04:22:12.572Z,16.33
2022-11-28T04:25:32.075Z,15.90
2022-11-28T04:28:06.423Z,20.07
2022-11-28T04:30:35.415Z,14.10
2022-11-28T04:33:10.741Z,18.70
2022-11-28T04:35:46.662Z,15.97
2022-11-28T04:38:14.351Z,19.57
2022-11-28T04:40:52.311Z,20.97
2022-11-28T04:43:31.564Z,21.60
2022-11-28T04:46:26.283Z,15.30
2022-11-28T04:48:53.104Z,17.70
2022-11-28T04:53:17.898Z,17.60
2022-11-28T04:56:00.904Z,17.43
2022-11-28T04:59:01.376Z,15.70
2022-11-28T05:01:31.770Z,12.60
2022-11-28T05:03:59.019Z,13.27
2022-11-28T05:06:35.279Z,15.23
2022-11-28T05:09:02.277Z,12.37
2022-11-28T05:11:29.711Z,16.50
2022-11-28T05:13:56.223Z,13.67
2022-11-28T05:16:23.083Z,10.33
2022-11-28T05:18:50.273Z,18.90
2022-11-28T05:21:16.780Z,14.70
2022-11-28T05:23:44.653Z,12.77
2022-11-28T05:26:17.941Z,21.27
2022-11-28T05:28:50.242Z,25.87
2022-11-28T05:31:20.279Z,22.53
2022-11-28T05:33:47.031Z,28.33
2022-11-28T05:36:15.676Z,20.13
2022-11-28T05:38:44.008Z,26.20
2022-11-28T05:41:23.045Z,24.53
2022-11-28T05:43:49.699Z,32.90
2022-11-28T05:46:16.505Z,30.97
2022-11-28T05:48:43.053Z,25.50
2022-11-28T05:51:09.913Z,37.27
2022-11-28T05:53:36.745Z,25.83
2022-11-28T05:56:42.101Z,24.40
2022-11-28T05:59:08.873Z,36.57
2022-11-28T06:01:35.503Z,43.77
2022-11-28T06:04:01.974Z,58.90
2022-11-28T06:06:32.275Z,70.73
2022-11-28T06:08:59.574Z,64.27
2022-11-28T06:11:30.073Z,56.27
2022-11-28T06:13:56.660Z,50.77
2022-11-28T06:16:27.177Z,38.97
2022-11-28T06:19:00.311Z,39.80
2022-11-28T06:21:29.593Z,27.47
2022-11-28T06:24:00.200Z,31.47
2022-11-28T06:26:28.018Z,30.50
2022-11-28T06:28:57.706Z,27.60
2022-11-28T06:31:27.801Z,32.27
2022-11-28T06:33:54.295Z,29.17
2022-11-28T06:36:20.847Z,25.30
2022-11-28T06:38:48.216Z,28.17
2022-11-28T06:41:18.797Z,26.87
2022-11-28T06:43:45.498Z,41.23
2022-11-28T06:46:16.456Z,29.53
2022-11-28T06:48:44.357Z,29.00
2022-11-28T06:51:12.391Z,33.83
2022-11-28T06:53:40.012Z,28.53
2022-11-28T06:56:19.213Z,29.73
2022-11-28T06:58:46.684Z,31.33
2022-11-28T07:01:20.451Z,36.83
2022-11-28T07:03:48.061Z,30.60
2022-11-28T07:06:17.049Z,33.63
2022-11-28T07:08:43.934Z,32.10
2022-11-28T07:11:20.390Z,37.40
2022-11-28T07:13:48.649Z,39.77
2022-11-28T07:16:25.685Z,31.53
2022-11-28T07:18:53.890Z,27.90
2022-11-28T07:21:21.248Z,27.23
2022-11-28T07:23:48.110Z,31.20
2022-11-28T07:26:18.066Z,28.70
2022-11-28T07:28:45.720Z,30.87
2022-11-28T07:31:16.551Z,29.53
2022-11-28T07:33:46.798Z,27.43
2022-11-28T07:36:19.931Z,27.63
2022-11-28T07:38:55.687Z,24.30
2022-11-28T07:41:26.515Z,31.07
2022-11-28T07:43:59.790Z,27.87
2022-11-28T07:46:29.102Z,22.33
2022-11-28T07:48:56.007Z,18.97
2022-11-28T07:51:26.918Z,20.13
2022-11-28T07:53:54.119Z,22.20
2022-11-28T07:56:35.037Z,19.83
2022-11-28T07:59:06.894Z,55.17
2022-11-28T08:01:35.446Z,36.57
2022-11-28T08:04:04.686Z,19.33
2022-11-28T08:06:34.571Z,20.37
2022-11-28T08:09:01.055Z,22.63
2022-11-28T08:11:29.334Z,21.70
2022-11-28T08:13:58.078Z,27.57
2022-11-28T08:16:28.962Z,44.37
2022-11-28T08:18:56.445Z,31.90
2022-11-28T08:21:30.248Z,23.90
2022-11-28T08:24:00.349Z,22.50
2022-11-28T08:26:30.579Z,23.17
2022-11-28T08:28:59.659Z,39.77
2022-11-28T08:31:32.865Z,20.60
2022-11-28T08:34:02.767Z,21.10
2022-11-28T08:36:29.705Z,27.00
2022-11-28T08:41:58.070Z,26.40
2022-11-28T08:44:26.619Z,25.43
2022-11-28T08:46:54.096Z,39.63
2022-11-28T08:49:20.633Z,29.03
2022-11-28T08:51:47.118Z,29.03
2022-11-28T08:54:13.565Z,41.20
2022-11-28T08:56:40.029Z,25.33
2022-11-28T08:59:07.071Z,26.93
2022-11-28T09:01:33.749Z,27.03
2022-11-28T09:04:00.799Z,24.53
2022-11-28T09:06:27.300Z,41.10
2022-11-28T09:08:53.768Z,29.20
2022-11-28T09:11:22.273Z,29.00
2022-11-28T09:13:49.367Z,39.17
2022-11-28T09:16:16.885Z,23.23
2022-11-28T09:18:43.449Z,27.10
2022-11-28T09:21:13.262Z,61.23
2022-11-28T09:23:41.829Z,45.60
2022-11-28T09:26:18.044Z,21.90
2022-11-28T09:28:44.874Z,25.73
2022-11-28T09:31:13.166Z,22.23
2022-11-28T09:33:40.421Z,22.20
2022-11-28T09:36:14.496Z,31.33
2022-11-28T09:38:41.591Z,24.77
2022-11-28T09:42:03.131Z,26.90
2022-11-28T09:45:16.428Z,29.90
2022-11-28T09:47:52.056Z,28.37
2022-11-28T09:50:32.218Z,26.43
2022-11-28T09:53:41.257Z,33.90
2022-11-28T09:56:21.784Z,35.87
2022-11-28T09:59:02.379Z,30.43
2022-11-28T10:05:08.904Z,29.77
2022-11-28T10:08:41.558Z,32.63
2022-11-28T10:14:33.855Z,32.80
2022-11-28T10:19:52.888Z,32.23
2022-11-28T10:25:34.310Z,35.57
2022-11-28T10:28:05.926Z,33.40
2022-11-28T10:30:40.625Z,29.63
2022-11-28T10:34:44.667Z,30.57
2022-11-28T10:37:27.919Z,33.60
2022-11-28T10:40:15.408Z,38.13
2022-11-28T10:43:19.537Z,38.00
2022-11-28T10:51:21.587Z,36.87
2022-11-28T11:00:41.453Z,27.67
2022-11-28T11:03:14.696Z,37.50
2022-11-28T11:05:41.770Z,42.00
2022-11-28T11:08:28.810Z,34.27
2022-11-28T11:11:51.199Z,41.67
2022-11-28T11:14:35.082Z,37.63
2022-11-28T11:17:02.019Z,54.60
2022-11-28T11:19:37.877Z,37.47
2022-11-28T11:22:27.673Z,40.03
2022-11-28T11:25:57.788Z,40.33
2022-11-28T11:28:49.453Z,34.90
2022-11-28T11:31:33.191Z,35.07
2022-11-28T11:34:15.793Z,42.30
2022-11-28T11:36:42.555Z,42.93
2022-11-28T11:39:27.246Z,42.27
2022-11-28T11:44:33.886Z,39.57
2022-11-28T11:47:10.326Z,38.33
2022-11-28T11:49:49.252Z,39.17
2022-11-28T11:52:24.463Z,35.13
2022-11-28T11:55:24.808Z,38.23
2022-11-28T11:57:54.105Z,30.07
2022-11-28T12:00:38.366Z,39.47
2022-11-28T12:03:28.307Z,28.07
2022-11-28T12:06:16.092Z,32.17
2022-11-28T12:08:52.192Z,39.30
2022-11-28T12:11:36.293Z,46.20
2022-11-28T12:14:30.719Z,35.17
2022-11-28T12:17:48.968Z,39.77
2022-11-28T12:21:20.508Z,37.73
2022-11-28T12:24:12.732Z,34.83
2022-11-28T12:27:05.911Z,29.30
2022-11-28T12:31:53.887Z,33.87
2022-11-28T12:35:06.077Z,28.27
2022-11-28T12:40:23.754Z,31.10
2022-11-28T12:45:47.689Z,28.03
2022-11-28T12:48:54.684Z,32.00
2022-11-28T12:56:38.169Z,28.90
2022-11-28T13:01:35.778Z,29.67
2022-11-28T13:07:24.003Z,32.97
2022-11-28T13:12:50.243Z,25.63
2022-11-28T13:17:13.904Z,23.27
2022-11-28T13:19:59.256Z,23.77
2022-11-28T13:24:20.920Z,26.97
2022-11-28T13:28:19.102Z,26.60
2022-11-28T13:30:58.964Z,23.00
2022-11-28T13:33:56.435Z,21.67
2022-11-28T13:40:35.886Z,27.47
2022-11-28T13:45:58.080Z,37.00
2022-11-28T13:49:28.817Z,36.67
2022-11-28T13:52:32.143Z,25.90
2022-11-28T13:54:58.617Z,34.87
2022-11-28T13:57:33.041Z,32.83
2022-11-28T14:00:22.051Z,34.83
2022-11-28T14:02:55.277Z,31.23
2022-11-28T14:05:37.340Z,39.60
2022-11-28T14:08:07.247Z,40.03
2022-11-28T14:10:59.871Z,39.03
2022-11-28T14:21:02.429Z,45.27
2022-11-28T14:27:36.426Z,28.93
2022-11-28T14:30:05.253Z,31.90
2022-11-28T14:32:40.192Z,34.73
2022-11-28T14:36:00.421Z,37.07
2022-11-28T14:39:41.384Z,30.97
2022-11-28T14:43:27.484Z,41.47
2022-11-28T14:46:31.467Z,35.80
2022-11-28T14:49:16.550Z,28.10
2022-11-28T14:52:41.181Z,46.03
2022-11-28T14:55:29.197Z,39.63
2022-11-28T14:58:04.852Z,31.03
2022-11-28T15:00:50.699Z,32.77
2022-11-28T15:04:04.626Z,39.90
2022-11-28T15:06:37.211Z,46.20
2022-11-28T15:09:22.820Z,53.17
2022-11-28T15:14:53.901Z,48.33
2022-11-28T15:17:31.720Z,49.83
2022-11-28T15:20:07.664Z,35.60
2022-11-28T15:22:42.711Z,30.80
2022-11-28T15:25:25.118Z,29.60
2022-11-28T15:27:53.324Z,31.90
2022-11-28T15:30:25.940Z,31.33
2022-11-28T15:32:59.733Z,28.87
2022-11-28T15:35:27.712Z,34.40
2022-11-28T15:37:57.421Z,34.37
2022-11-28T15:40:35.560Z,31.23
2022-11-28T15:43:08.043Z,37.37
2022-11-28T15:45:41.398Z,36.83
2022-11-28T15:48:50.113Z,42.00
2022-11-28T15:51:32.656Z,35.33
2022-11-28T15:54:02.533Z,31.90
2022-11-28T15:56:29.299Z,39.80
2022-11-28T15:58:55.847Z,33.50
2022-11-28T16:01:27.357Z,33.17
2022-11-28T16:04:09.792Z,33.40
2022-11-28T16:06:40.595Z,30.10
2022-11-28T16:10:36.284Z,30.93
2022-11-28T16:13:13.198Z,35.67
2022-11-28T16:15:49.720Z,33.10
2022-11-28T16:18:17.041Z,53.00
2022-11-28T16:20:44.275Z,34.17
2022-11-28T16:23:33.363Z,36.10
2022-11-28T16:26:23.034Z,30.90
2022-11-28T16:29:13.916Z,36.93
2022-11-28T16:31:43.411Z,33.13
2022-11-28T16:34:14.148Z,37.20
2022-11-28T16:36:45.987Z,32.47
2022-11-28T16:39:17.144Z,33.63
2022-11-28T16:41:54.018Z,31.53
2022-11-28T16:44:24.133Z,48.00
2022-11-28T16:46:54.794Z,31.83
2022-11-28T16:49:37.880Z,32.63
2022-11-28T16:54:31.950Z,35.40
2022-11-28T16:57:13.703Z,30.77
2022-11-28T16:59:42.120Z,41.90
2022-11-28T17:02:22.533Z,34.47
2022-11-28T17:04:52.043Z,31.23
2022-11-28T17:07:22.851Z,29.13
2022-11-28T17:09:50.393Z,35.27
2022-11-28T17:12:36.274Z,31.53
2022-11-28T17:15:02.961Z,29.23
2022-11-28T17:17:35.783Z,29.10
2022-11-28T17:20:02.929Z,38.07
2022-11-28T17:22:40.938Z,30.70
2022-11-28T17:25:16.022Z,36.47
2022-11-28T17:27:42.882Z,33.83
2022-11-28T17:30:19.142Z,31.43
2022-11-28T17:32:51.179Z,34.93
2022-11-28T17:35:23.103Z,45.27
2022-11-28T17:37:49.802Z,34.83
2022-11-28T17:40:35.856Z,33.37
2022-11-28T17:43:03.374Z,34.00
2022-11-28T17:45:34.139Z,33.53
2022-11-28T17:48:00.699Z,32.53
2022-11-28T17:50:27.608Z,35.23
2022-11-28T17:52:54.063Z,28.33
2022-11-28T17:55:20.497Z,35.73
2022-11-28T17:57:47.163Z,29.47
2022-11-28T18:00:16.129Z,32.60
2022-11-28T18:02:42.653Z,24.83
2022-11-28T18:05:09.404Z,32.60
2022-11-28T18:07:35.881Z,29.60
2022-11-28T18:10:02.787Z,27.57
2022-11-28T18:12:29.265Z,27.00
2022-11-28T18:14:55.714Z,27.37
2022-11-28T18:17:22.181Z,26.23
2022-11-28T18:19:52.034Z,29.97
2022-11-28T18:22:21.020Z,27.80
2022-11-28T18:24:47.493Z,32.83
2022-11-28T18:27:13.960Z,29.97
2022-11-28T18:29:40.419Z,31.80
2022-11-28T18:32:06.916Z,32.73
2022-11-28T18:34:33.455Z,32.70
2022-11-28T18:37:00.101Z,59.10
2022-11-28T18:39:27.069Z,68.93
2022-11-28T18:41:53.533Z,60.40
2022-11-28T18:44:19.989Z,61.23
2022-11-28T18:46:46.470Z,37.53
2022-11-28T18:49:14.397Z,39.13
2022-11-28T18:51:40.881Z,34.80
2022-11-28T18:54:08.502Z,41.83
2022-11-28T18:56:35.360Z,37.47
2022-11-28T18:59:01.915Z,57.90
2022-11-28T19:01:31.937Z,68.40
2022-11-28T19:04:05.621Z,68.13
2022-11-28T19:06:35.283Z,68.57
2022-11-28T19:09:05.169Z,76.33
2022-11-28T19:11:32.423Z,80.87
2022-11-28T19:13:59.053Z,84.33
2022-11-28T19:16:32.174Z,46.50
2022-11-28T19:19:00.525Z,43.13
2022-11-28T19:21:33.825Z,40.87
2022-11-28T19:24:01.269Z,45.83
2022-11-28T19:26:30.406Z,44.37
2022-11-28T19:28:58.782Z,36.23
2022-11-28T19:31:32.628Z,47.37
2022-11-28T19:34:17.523Z,43.20
2022-11-28T19:36:50.215Z,40.03
2022-11-28T19:39:23.477Z,40.10
2022-11-28T19:41:54.466Z,39.53
2022-11-28T19:44:23.851Z,39.20
2022-11-28T19:46:50.475Z,57.63
2022-11-28T19:49:21.557Z,52.73
2022-11-28T19:51:49.148Z,53.23
2022-11-28T19:54:18.802Z,53.03
2022-11-28T19:56:45.705Z,50.03
2022-11-28T19:59:14.506Z,47.40
2022-11-28T20:01:41.090Z,50.10
2022-11-28T20:04:07.848Z,39.00
2022-11-28T20:06:34.347Z,42.10
2022-11-28T20:09:08.648Z,35.53
2022-11-28T20:11:36.567Z,39.63
2022-11-28T20:14:11.395Z,38.57
2022-11-28T20:16:37.952Z,43.43
2022-11-28T20:19:05.427Z,43.97
2022-11-28T20:21:33.491Z,35.07
2022-11-28T20:24:04.327Z,45.37
2022-11-28T20:26:35.858Z,39.80
2022-11-28T20:29:02.514Z,44.17
2022-11-28T20:31:36.683Z,52.27
2022-11-28T20:34:04.108Z,45.83
2022-11-28T20:36:31.552Z,53.70
2022-11-28T20:38:58.752Z,70.90
2022-11-28T20:41:27.256Z,59.97
2022-11-28T20:43:53.979Z,64.97
2022-11-28T20:46:26.452Z,72.77
2022-11-28T20:48:53.651Z,80.57
2022-11-28T20:51:24.145Z,88.27
2022-11-28T20:53:51.835Z,78.07
2022-11-28T20:56:24.486Z,53.30
2022-11-28T20:58:51.633Z,50.80
2022-11-28T21:01:25.532Z,52.03
2022-11-28T21:03:52.498Z,45.33
2022-11-28T21:06:19.759Z,44.00
2022-11-28T21:08:46.719Z,44.10
2022-11-28T21:11:43.384Z,49.97
2022-11-28T21:14:21.966Z,48.67
2022-11-28T21:16:49.176Z,48.00
2022-11-28T21:19:15.662Z,48.23
2022-11-28T21:21:42.457Z,56.53
2022-11-28T21:24:12.812Z,53.07
2022-11-28T21:26:44.216Z,66.83
2022-11-28T21:29:14.475Z,46.63
2022-11-28T21:31:43.667Z,53.10
2022-11-28T21:34:13.492Z,48.50
2022-11-28T21:36:40.347Z,55.63
2022-11-28T21:39:12.063Z,59.10
2022-11-28T21:41:38.528Z,55.57
2022-11-28T21:44:05.204Z,59.87
2022-11-28T21:46:31.670Z,55.63
2022-11-28T21:48:58.112Z,60.13
2022-11-28T21:51:27.738Z,60.40
2022-11-28T21:53:54.313Z,62.47
2022-11-28T21:56:21.257Z,55.30
2022-11-28T21:58:47.691Z,64.27
2022-11-28T22:01:14.974Z,62.47
2022-11-28T22:03:43.450Z,60.10
2022-11-28T22:06:23.425Z,65.70
2022-11-28T22:08:50.867Z,75.80
2022-11-28T22:11:18.607Z,62.40
2022-11-28T22:13:46.159Z,64.20
2022-11-28T22:16:28.414Z,57.73
2022-11-28T22:18:58.829Z,58.13
2022-11-28T22:21:51.248Z,56.07
2022-11-28T22:24:18.850Z,56.73
2022-11-28T22:26:45.438Z,56.27
2022-11-28T22:29:11.948Z,64.90
2022-11-28T22:31:38.455Z,62.27
2022-11-28T22:34:04.982Z,61.53
2022-11-28T22:36:32.701Z,55.10
2022-11-28T22:38:59.173Z,65.43
2022-11-28T22:41:29.224Z,59.53
2022-11-28T22:43:59.619Z,56.40
2022-11-28T22:46:26.431Z,64.73
2022-11-28T22:48:53.068Z,63.33
2022-11-28T22:51:23.594Z,59.30
2022-11-28T22:53:54.592Z,59.27
2022-11-28T22:56:21.510Z,62.47
2022-11-28T22:58:48.198Z,64.30
2022-11-28T23:01:18.238Z,72.43
2022-11-28T23:03:46.170Z,67.97
2022-11-28T23:06:23.049Z,70.17
2022-11-28T23:08:50.938Z,66.43
2022-11-28T23:11:21.779Z,72.97
2022-11-28T23:13:49.757Z,74.30
2022-11-28T23:16:23.281Z,81.87
2022-11-28T23:18:55.176Z,87.63
2022-11-28T23:21:23.759Z,82.10
2022-11-28T23:23:50.825Z,64.03
2022-11-28T23:26:24.347Z,76.77
2022-11-28T23:28:52.331Z,97.40
2022-11-28T23:31:25.888Z,134.80
2022-11-28T23:33:52.975Z,75.50
2022-11-28T23:36:42.141Z,67.27
2022-11-28T23:39:15.971Z,76.57
2022-11-28T23:41:42.950Z,74.33
2022-11-28T23:44:14.745Z,93.80
2022-11-28T23:46:42.520Z,114.87
2022-11-28T23:49:10.853Z,136.67
2022-11-28T23:51:39.655Z,138.23
2022-11-28T23:54:07.456Z,106.60
2022-11-28T23:56:37.578Z,105.97
2022-11-28T23:59:07.220Z,101.87
